sensor_id;sensor_type;location;lat;lon;timestamp;pressure;altitude;pressure_sealevel;temperature;humidity
36354;BME280;22383;51.114;13.666;2023-12-29T00:02:17;67833.59;;;5.81;100.00
36354;BME280;22383;51.114;13.666;2023-12-29T00:04:44;67830.03;;;5.83;100.00
36354;BME280;22383;51.114;13.666;2023-12-29T00:07:11;67821.72;;;5.71;100.00
36354;BME280;22383;51.114;13.666;2023-12-29T00:09:38;67807.03;;;5.57;100.00
36354;BME280;22383;51.114;13.666;2023-12-29T00:12:08;67797.66;;;5.51;100.00
36354;BME280;22383;51.114;13.666;2023-12-29T00:14:39;67801.59;;;5.55;100.00
36354;BME280;22383;51.114;13.666;2023-12-29T00:17:07;67801.38;;;5.52;100.00
36354;BME280;22383;51.114;13.666;2023-12-29T00:19:34;67800.84;;;5.52;100.00
36354;BME280;22383;51.114;13.666;2023-12-29T00:22:02;67798.22;;;5.52;100.00
36354;BME280;22383;51.114;13.666;2023-12-29T00:24:30;67789.94;;;5.46;100.00
36354;BME280;22383;51.114;13.666;2023-12-29T00:27:01;67795.94;;;5.49;100.00
36354;BME280;22383;51.114;13.666;2023-12-29T00:29:29;67794.25;;;5.48;100.00
36354;BME280;22383;51.114;13.666;2023-12-29T00:32:00;67803.09;;;5.54;100.00
36354;BME280;22383;51.114;13.666;2023-12-29T00:34:28;67803.28;;;5.56;100.00
36354;BME280;22383;51.114;13.666;2023-12-29T00:36:55;67813.06;;;5.60;100.00
36354;BME280;22383;51.114;13.666;2023-12-29T00:39:22;67805.16;;;5.53;100.00
36354;BME280;22383;51.114;13.666;2023-12-29T00:41:58;67804.97;;;5.51;100.00
36354;BME280;22383;51.114;13.666;2023-12-29T00:44:25;67800.84;;;5.52;100.00
36354;BME280;22383;51.114;13.666;2023-12-29T00:46:52;67797.81;;;5.46;100.00
36354;BME280;22383;51.114;13.666;2023-12-29T00:49:20;67803.66;;;5.54;100.00
36354;BME280;22383;51.114;13.666;2023-12-29T00:51:48;67798.56;;;5.49;100.00
36354;BME280;22383;51.114;13.666;2023-12-29T00:54:15;67807.63;;;5.58;100.00
36354;BME280;22383;51.114;13.666;2023-12-29T00:56:52;67823.41;;;5.72;100.00
36354;BME280;22383;51.114;13.666;2023-12-29T00:59:20;67815.72;;;5.67;100.00
36354;BME280;22383;51.114;13.666;2023-12-29T01:01:48;67812.13;;;5.62;100.00
36354;BME280;22383;51.114;13.666;2023-12-29T01:04:15;67822.88;;;5.72;100.00
36354;BME280;22383;51.114;13.666;2023-12-29T01:06:42;67815.53;;;5.65;100.00
36354;BME280;22383;51.114;13.666;2023-12-29T01:09:10;67811.34;;;5.59;100.00
36354;BME280;22383;51.114;13.666;2023-12-29T01:11:39;67799.91;;;5.53;100.00
36354;BME280;22383;51.114;13.666;2023-12-29T01:14:07;67818.53;;;5.70;100.00
36354;BME280;22383;51.114;13.666;2023-12-29T01:16:34;67828.16;;;5.79;100.00
36354;BME280;22383;51.114;13.666;2023-12-29T01:19:01;67819.66;;;5.71;100.00
36354;BME280;22383;51.114;13.666;2023-12-29T01:21:28;67816.28;;;5.68;100.00
36354;BME280;22383;51.114;13.666;2023-12-29T01:24:01;67821.72;;;5.71;100.00
36354;BME280;22383;51.114;13.666;2023-12-29T01:26:30;67844.88;;;5.92;100.00
36354;BME280;22383;51.114;13.666;2023-12-29T01:28:58;67853.94;;;6.00;100.00
36354;BME280;22383;51.114;13.666;2023-12-29T01:31:29;67847.94;;;5.97;100.00
36354;BME280;22383;51.114;13.666;2023-12-29T01:33:57;67849.63;;;5.98;100.00
36354;BME280;22383;51.114;13.666;2023-12-29T01:36:24;67839.44;;;5.89;100.00
36354;BME280;22383;51.114;13.666;2023-12-29T01:38:51;67832.66;;;5.83;100.00
36354;BME280;22383;51.114;13.666;2023-12-29T01:41:22;67847.13;;;5.94;100.00
36354;BME280;22383;51.114;13.666;2023-12-29T01:46:28;67833.22;;;5.83;100.00
36354;BME280;22383;51.114;13.666;2023-12-29T01:48:57;67830.97;;;5.81;100.00
36354;BME280;22383;51.114;13.666;2023-12-29T01:51:26;67832.47;;;5.80;100.00
36354;BME280;22383;51.114;13.666;2023-12-29T01:53:55;67828.16;;;5.79;100.00
36354;BME280;22383;51.114;13.666;2023-12-29T01:56:25;67846.38;;;5.91;100.00
36354;BME280;22383;51.114;13.666;2023-12-29T01:58:55;67851.69;;;5.98;100.00
36354;BME280;22383;51.114;13.666;2023-12-29T02:01:35;67866.56;;;6.14;100.00
36354;BME280;22383;51.114;13.666;2023-12-29T02:04:06;67866.38;;;6.11;100.00
36354;BME280;22383;51.114;13.666;2023-12-29T02:06:34;67874.84;;;6.19;100.00
36354;BME280;22383;51.114;13.666;2023-12-29T02:09:02;67853.38;;;5.99;100.00
36354;BME280;22383;51.114;13.666;2023-12-29T02:11:32;67854.13;;;6.02;100.00
36354;BME280;22383;51.114;13.666;2023-12-29T02:14:01;67866.38;;;6.11;100.00
36354;BME280;22383;51.114;13.666;2023-12-29T02:16:37;67859.59;;;6.05;100.00
36354;BME280;22383;51.114;13.666;2023-12-29T02:19:14;67875.41;;;6.19;100.00
36354;BME280;22383;51.114;13.666;2023-12-29T02:21:48;67869.75;;;6.14;100.00
36354;BME280;22383;51.114;13.666;2023-12-29T02:24:15;67868.06;;;6.13;100.00
36354;BME280;22383;51.114;13.666;2023-12-29T02:26:47;67868.06;;;6.13;100.00
36354;BME280;22383;51.114;13.666;2023-12-29T02:29:19;67851.31;;;6.00;100.00
36354;BME280;22383;51.114;13.666;2023-12-29T02:31:50;67851.88;;;6.00;100.00
36354;BME280;22383;51.114;13.666;2023-12-29T02:34:20;67838.31;;;5.88;100.00
36354;BME280;22383;51.114;13.666;2023-12-29T02:36:50;67844.88;;;5.92;100.00
36354;BME280;22383;51.114;13.666;2023-12-29T02:39:18;67838.47;;;5.83;100.00
36354;BME280;22383;51.114;13.666;2023-12-29T02:41:46;67836.22;;;5.81;100.00
36354;BME280;22383;51.114;13.666;2023-12-29T02:44:13;67835.28;;;5.83;100.00
36354;BME280;22383;51.114;13.666;2023-12-29T02:46:40;67837.16;;;5.87;100.00
36354;BME280;22383;51.114;13.666;2023-12-29T02:49:08;67843.94;;;5.93;100.00
36354;BME280;22383;51.114;13.666;2023-12-29T02:51:39;67839.59;;;5.84;100.00
36354;BME280;22383;51.114;13.666;2023-12-29T02:54:07;67827.38;;;5.76;100.00
36354;BME280;22383;51.114;13.666;2023-12-29T02:56:34;67826.81;;;5.75;100.00
36354;BME280;22383;51.114;13.666;2023-12-29T02:59:02;67830.97;;;5.81;100.00
36354;BME280;22383;51.114;13.666;2023-12-29T03:01:29;67824.19;;;5.75;100.00
36354;BME280;22383;51.114;13.666;2023-12-29T03:03:57;67824.53;;;5.73;100.00
36354;BME280;22383;51.114;13.666;2023-12-29T03:06:24;67831.69;;;5.77;100.00
36354;BME280;22383;51.114;13.666;2023-12-29T03:08:52;67836.06;;;5.86;100.00
36354;BME280;22383;51.114;13.666;2023-12-29T03:11:19;67839.22;;;5.86;100.00
36354;BME280;22383;51.114;13.666;2023-12-29T03:13:46;67834.50;;;5.80;100.00
36354;BME280;22383;51.114;13.666;2023-12-29T03:16:13;67842.25;;;5.92;100.00
36354;BME280;22383;51.114;13.666;2023-12-29T03:18:40;67850.00;;;5.96;100.00
36354;BME280;22383;51.114;13.666;2023-12-29T03:21:09;67842.25;;;5.92;100.00
36354;BME280;22383;51.114;13.666;2023-12-29T03:23:36;67864.88;;;6.12;100.00
36354;BME280;22383;51.114;13.666;2023-12-29T03:26:04;67871.47;;;6.16;100.00
36354;BME280;22383;51.114;13.666;2023-12-29T03:28:31;67877.66;;;6.21;100.00
36354;BME280;22383;51.114;13.666;2023-12-29T03:30:58;67872.78;;;6.19;100.00
36354;BME280;22383;51.114;13.666;2023-12-29T03:33:25;67885.00;;;6.28;100.00
36354;BME280;22383;51.114;13.666;2023-12-29T03:35:53;67882.38;;;6.28;100.00
36354;BME280;22383;51.114;13.666;2023-12-29T03:38:20;67880.47;;;6.24;100.00
36354;BME280;22383;51.114;13.666;2023-12-29T03:40:47;67885.56;;;6.29;100.00
36354;BME280;22383;51.114;13.666;2023-12-29T03:43:14;67888.59;;;6.34;100.00
36354;BME280;22383;51.114;13.666;2023-12-29T03:45:41;67893.47;;;6.36;100.00
36354;BME280;22383;51.114;13.666;2023-12-29T03:48:08;67896.66;;;6.36;100.00
36354;BME280;22383;51.114;13.666;2023-12-29T03:50:36;67881.25;;;6.27;100.00
36354;BME280;22383;51.114;13.666;2023-12-29T03:53:03;67892.38;;;6.35;100.00
36354;BME280;22383;51.114;13.666;2023-12-29T03:55:31;67893.09;;;6.38;100.00
36354;BME280;22383;51.114;13.666;2023-12-29T03:57:58;67884.25;;;6.25;100.00
36354;BME280;22383;51.114;13.666;2023-12-29T04:00:25;67871.25;;;6.13;100.00
36354;BME280;22383;51.114;13.666;2023-12-29T04:02:53;67870.31;;;6.15;100.00
36354;BME280;22383;51.114;13.666;2023-12-29T04:05:20;67866.75;;;6.09;100.00
36354;BME280;22383;51.114;13.666;2023-12-29T04:07:47;67861.47;;;6.09;100.00
36354;BME280;22383;51.114;13.666;2023-12-29T04:10:14;67863.34;;;6.06;100.00
36354;BME280;22383;51.114;13.666;2023-12-29T04:12:41;67855.28;;;6.03;100.00
36354;BME280;22383;51.114;13.666;2023-12-29T04:15:09;67866.38;;;6.11;100.00
36354;BME280;22383;51.114;13.666;2023-12-29T04:17:36;67868.63;;;6.13;100.00
36354;BME280;22383;51.114;13.666;2023-12-29T04:20:04;67869.94;;;6.17;100.00
36354;BME280;22383;51.114;13.666;2023-12-29T04:22:31;67864.66;;;6.10;100.00
36354;BME280;22383;51.114;13.666;2023-12-29T04:24:59;67885.56;;;6.29;100.00
36354;BME280;22383;51.114;13.666;2023-12-29T04:27:26;67889.75;;;6.35;100.00
36354;BME280;22383;51.114;13.666;2023-12-29T04:29:53;67892.38;;;6.35;100.00
36354;BME280;22383;51.114;13.666;2023-12-29T04:32:20;67897.28;;;6.44;100.00
36354;BME280;22383;51.114;13.666;2023-12-29T04:34:47;67888.78;;;6.36;100.00
36354;BME280;22383;51.114;13.666;2023-12-29T04:37:16;67900.06;;;6.39;100.00
36354;BME280;22383;51.114;13.666;2023-12-29T04:39:43;67909.66;;;6.48;100.00
36354;BME280;22383;51.114;13.666;2023-12-29T04:42:10;67913.25;;;6.54;100.00
36354;BME280;22383;51.114;13.666;2023-12-29T04:44:38;67909.28;;;6.50;100.00
36354;BME280;22383;51.114;13.666;2023-12-29T04:47:05;67914.94;;;6.55;100.00
36354;BME280;22383;51.114;13.666;2023-12-29T04:49:32;67919.13;;;6.61;100.00
36354;BME280;22383;51.114;13.666;2023-12-29T04:52:00;67931.91;;;6.71;100.00
36354;BME280;22383;51.114;13.666;2023-12-29T04:54:27;67931.91;;;6.71;100.00
36354;BME280;22383;51.114;13.666;2023-12-29T04:56:54;67932.69;;;6.74;100.00
36354;BME280;22383;51.114;13.666;2023-12-29T04:59:22;67927.97;;;6.74;100.00
36354;BME280;22383;51.114;13.666;2023-12-29T05:01:49;67927.41;;;6.67;100.00
36354;BME280;22383;51.114;13.666;2023-12-29T05:04:16;67930.59;;;6.74;100.00
36354;BME280;22383;51.114;13.666;2023-12-29T05:06:44;67940.97;;;6.79;100.00
36354;BME280;22383;51.114;13.666;2023-12-29T05:09:11;67956.22;;;6.93;100.00
36354;BME280;22383;51.114;13.666;2023-12-29T05:11:39;67959.59;;;6.96;100.00
36354;BME280;22383;51.114;13.666;2023-12-29T05:14:06;67951.13;;;6.88;100.00
36354;BME280;22383;51.114;13.666;2023-12-29T05:16:33;67943.97;;;6.84;100.00
36354;BME280;22383;51.114;13.666;2023-12-29T05:19:00;67950.38;;;6.85;100.00
36354;BME280;22383;51.114;13.666;2023-12-29T05:21:27;67954.31;;;6.89;100.00
36354;BME280;22383;51.114;13.666;2023-12-29T05:23:55;67954.53;;;6.91;100.00
36354;BME280;22383;51.114;13.666;2023-12-29T05:26:22;67956.22;;;6.93;100.00
36354;BME280;22383;51.114;13.666;2023-12-29T05:28:49;67950.19;;;6.90;100.00
36354;BME280;22383;51.114;13.666;2023-12-29T05:31:16;67944.34;;;6.82;100.00
36354;BME280;22383;51.114;13.666;2023-12-29T05:33:44;67945.09;;;6.85;100.00
36354;BME280;22383;51.114;13.666;2023-12-29T05:36:12;67963.56;;;6.99;100.00
36354;BME280;22383;51.114;13.666;2023-12-29T05:38:39;67964.31;;;7.03;100.00
36354;BME280;22383;51.114;13.666;2023-12-29T05:41:08;67969.78;;;7.05;100.00
36354;BME280;22383;51.114;13.666;2023-12-29T05:43:35;67946.63;;;6.84;100.00
36354;BME280;22383;51.114;13.666;2023-12-29T05:46:02;67945.09;;;6.85;100.00
36354;BME280;22383;51.114;13.666;2023-12-29T05:48:35;67951.50;;;6.86;100.00
36354;BME280;22383;51.114;13.666;2023-12-29T05:51:09;67946.97;;;6.82;100.00
36354;BME280;22383;51.114;13.666;2023-12-29T05:53:39;67946.63;;;6.84;100.00
36354;BME280;22383;51.114;13.666;2023-12-29T05:56:06;67943.22;;;6.81;100.00
36354;BME280;22383;51.114;13.666;2023-12-29T05:58:33;67943.78;;;6.81;100.00
36354;BME280;22383;51.114;13.666;2023-12-29T06:01:01;67933.22;;;6.74;100.00
36354;BME280;22383;51.114;13.666;2023-12-29T06:03:28;67940.19;;;6.76;100.00
36354;BME280;22383;51.114;13.666;2023-12-29T06:05:56;67935.88;;;6.74;100.00
36354;BME280;22383;51.114;13.666;2023-12-29T06:08:23;67935.31;;;6.74;100.00
36354;BME280;22383;51.114;13.666;2023-12-29T06:10:50;67937.00;;;6.75;100.00
36354;BME280;22383;51.114;13.666;2023-12-29T06:13:17;67940.97;;;6.79;100.00
36354;BME280;22383;51.114;13.666;2023-12-29T06:15:44;67931.34;;;6.70;100.00
36354;BME280;22383;51.114;13.666;2023-12-29T06:18:12;67929.09;;;6.68;100.00
36354;BME280;22383;51.114;13.666;2023-12-29T06:20:39;67912.91;;;6.56;100.00
36354;BME280;22383;51.114;13.666;2023-12-29T06:23:06;67932.47;;;6.71;100.00
36354;BME280;22383;51.114;13.666;2023-12-29T06:25:33;67926.81;;;6.66;100.00
36354;BME280;22383;51.114;13.666;2023-12-29T06:28:02;67908.94;;;6.52;100.00
36354;BME280;22383;51.114;13.666;2023-12-29T06:30:31;67913.06;;;6.51;100.00
36354;BME280;22383;51.114;13.666;2023-12-29T06:32:58;67906.13;;;6.50;100.00
36354;BME280;22383;51.114;13.666;2023-12-29T06:35:25;67909.28;;;6.50;100.00
36354;BME280;22383;51.114;13.666;2023-12-29T06:37:52;67902.16;;;6.46;100.00
36354;BME280;22383;51.114;13.666;2023-12-29T06:40:20;67913.06;;;6.51;100.00
36354;BME280;22383;51.114;13.666;2023-12-29T06:42:47;67907.25;;;6.51;100.00
36354;BME280;22383;51.114;13.666;2023-12-29T06:45:15;67933.59;;;6.72;100.00
36354;BME280;22383;51.114;13.666;2023-12-29T06:47:42;67925.31;;;6.67;100.00
36354;BME280;22383;51.114;13.666;2023-12-29T06:50:09;67930.41;;;6.72;100.00
36354;BME280;22383;51.114;13.666;2023-12-29T06:52:40;67941.34;;;6.77;100.00
36354;BME280;22383;51.114;13.666;2023-12-29T06:55:07;67934.75;;;6.73;100.00
36354;BME280;22383;51.114;13.666;2023-12-29T06:57:35;67943.22;;;6.81;100.00
36354;BME280;22383;51.114;13.666;2023-12-29T07:00:03;67930.41;;;6.72;100.00
36354;BME280;22383;51.114;13.666;2023-12-29T07:02:31;67923.44;;;6.63;100.00
36354;BME280;22383;51.114;13.666;2023-12-29T07:04:58;67922.84;;;6.62;100.00
36354;BME280;22383;51.114;13.666;2023-12-29T07:07:25;67943.78;;;6.81;100.00
36354;BME280;22383;51.114;13.666;2023-12-29T07:09:52;67946.41;;;6.81;100.00
36354;BME280;22383;51.114;13.666;2023-12-29T07:12:20;67937.94;;;6.74;100.00
36354;BME280;22383;51.114;13.666;2023-12-29T07:14:47;67928.16;;;6.70;100.00
36354;BME280;22383;51.114;13.666;2023-12-29T07:17:14;67928.16;;;6.70;100.00
36354;BME280;22383;51.114;13.666;2023-12-29T07:19:41;67937.78;;;6.78;100.00
36354;BME280;22383;51.114;13.666;2023-12-29T07:22:09;67948.88;;;6.86;100.00
36354;BME280;22383;51.114;13.666;2023-12-29T07:24:36;67943.41;;;6.84;100.00
36354;BME280;22383;51.114;13.666;2023-12-29T07:27:03;67940.59;;;6.81;100.00
36354;BME280;22383;51.114;13.666;2023-12-29T07:29:31;67927.41;;;6.67;100.00
36354;BME280;22383;51.114;13.666;2023-12-29T07:31:58;67942.28;;;6.82;100.00
36354;BME280;22383;51.114;13.666;2023-12-29T07:34:26;67935.50;;;6.76;100.00
36354;BME280;22383;51.114;13.666;2023-12-29T07:36:54;67933.78;;;6.75;100.00
36354;BME280;22383;51.114;13.666;2023-12-29T07:39:21;67939.81;;;6.78;100.00
36354;BME280;22383;51.114;13.666;2023-12-29T07:41:49;67954.16;;;6.93;100.00
36354;BME280;22383;51.114;13.666;2023-12-29T07:44:17;67969.22;;;7.05;100.00
36354;BME280;22383;51.114;13.666;2023-12-29T07:46:45;67961.88;;;6.98;100.00
36354;BME280;22383;51.114;13.666;2023-12-29T07:49:12;67966.59;;;7.05;100.00
36354;BME280;22383;51.114;13.666;2023-12-29T07:51:40;67970.72;;;7.04;100.00
36354;BME280;22383;51.114;13.666;2023-12-29T07:54:08;67977.69;;;7.12;100.00
36354;BME280;22383;51.114;13.666;2023-12-29T07:56:35;67971.13;;;7.09;100.00
36354;BME280;22383;51.114;13.666;2023-12-29T07:59:04;67974.88;;;7.10;100.00
36354;BME280;22383;51.114;13.666;2023-12-29T08:01:31;67961.13;;;6.95;100.00
36354;BME280;22383;51.114;13.666;2023-12-29T08:03:58;67981.66;;;7.16;100.00
36354;BME280;22383;51.114;13.666;2023-12-29T08:06:26;67993.16;;;7.29;100.00
36354;BME280;22383;51.114;13.666;2023-12-29T08:08:54;67999.00;;;7.29;100.00
36354;BME280;22383;51.114;13.666;2023-12-29T08:11:21;68007.09;;;7.39;100.00
36354;BME280;22383;51.114;13.666;2023-12-29T08:13:48;68009.56;;;7.44;100.00
36354;BME280;22383;51.114;13.666;2023-12-29T08:16:16;68014.63;;;7.48;100.00
36354;BME280;22383;51.114;13.666;2023-12-29T08:18:48;68019.56;;;7.50;100.00
36354;BME280;22383;51.114;13.666;2023-12-29T08:21:17;68023.13;;;7.56;100.00
36354;BME280;22383;51.114;13.666;2023-12-29T08:23:46;68025.56;;;7.53;100.00
36354;BME280;22383;51.114;13.666;2023-12-29T08:26:14;68021.63;;;7.57;100.00
36354;BME280;22383;51.114;13.666;2023-12-29T08:28:41;68014.63;;;7.48;100.00
36354;BME280;22383;51.114;13.666;2023-12-29T08:31:08;68027.47;;;7.57;100.00
36354;BME280;22383;51.114;13.666;2023-12-29T08:33:36;68032.53;;;7.62;100.00
36354;BME280;22383;51.114;13.666;2023-12-29T08:36:04;68043.84;;;7.72;100.00
36354;BME280;22383;51.114;13.666;2023-12-29T08:38:31;68057.25;;;7.82;100.00
36354;BME280;22383;51.114;13.666;2023-12-29T08:40:59;68052.72;;;7.78;100.00
36354;BME280;22383;51.114;13.666;2023-12-29T08:43:26;68033.88;;;7.66;100.00
36354;BME280;22383;51.114;13.666;2023-12-29T08:45:53;68039.34;;;7.68;100.00
36354;BME280;22383;51.114;13.666;2023-12-29T08:48:21;68042.94;;;7.74;100.00
36354;BME280;22383;51.114;13.666;2023-12-29T08:50:49;68050.06;;;7.78;100.00
36354;BME280;22383;51.114;13.666;2023-12-29T08:53:16;68048.38;;;7.76;100.00
36354;BME280;22383;51.114;13.666;2023-12-29T08:55:44;68056.88;;;7.84;100.00
36354;BME280;22383;51.114;13.666;2023-12-29T08:58:12;68064.78;;;7.91;100.00
36354;BME280;22383;51.114;13.666;2023-12-29T09:00:39;68053.09;;;7.83;100.00
36354;BME280;22383;51.114;13.666;2023-12-29T09:03:07;68053.69;;;7.84;100.00
36354;BME280;22383;51.114;13.666;2023-12-29T09:05:34;68068.75;;;7.95;100.00
36354;BME280;22383;51.114;13.666;2023-12-29T09:08:02;68056.88;;;7.84;100.00
36354;BME280;22383;51.114;13.666;2023-12-29T09:10:29;68065.38;;;7.99;100.00
36354;BME280;22383;51.114;13.666;2023-12-29T09:12:57;68065.34;;;7.92;100.00
36354;BME280;22383;51.114;13.666;2023-12-29T09:15:24;68063.66;;;7.90;100.00
36354;BME280;22383;51.114;13.666;2023-12-29T09:17:51;68062.72;;;7.92;100.00
36354;BME280;22383;51.114;13.666;2023-12-29T09:20:18;68063.09;;;7.90;100.00
36354;BME280;22383;51.114;13.666;2023-12-29T09:22:46;68069.53;;;7.98;100.00
36354;BME280;22383;51.114;13.666;2023-12-29T09:25:13;68065.75;;;7.97;100.00
36354;BME280;22383;51.114;13.666;2023-12-29T09:27:41;68070.63;;;7.99;100.00
36354;BME280;22383;51.114;13.666;2023-12-29T09:30:08;68081.00;;;8.04;100.00
36354;BME280;22383;51.114;13.666;2023-12-29T09:32:35;68086.28;;;8.11;100.00
36354;BME280;22383;51.114;13.666;2023-12-29T09:35:03;68083.09;;;8.10;100.00
36354;BME280;22383;51.114;13.666;2023-12-29T09:37:30;68092.50;;;8.09;100.00
36354;BME280;22383;51.114;13.666;2023-12-29T09:39:57;68091.19;;;8.13;100.00
36354;BME280;22383;51.114;13.666;2023-12-29T09:42:28;68101.94;;;8.23;100.00
36354;BME280;22383;51.114;13.666;2023-12-29T09:44:56;68108.56;;;8.33;100.00
36354;BME280;22383;51.114;13.666;2023-12-29T09:47:24;68121.59;;;8.45;100.00
36354;BME280;22383;51.114;13.666;2023-12-29T09:49:52;68121.59;;;8.45;100.00
36354;BME280;22383;51.114;13.666;2023-12-29T09:52:22;68129.91;;;8.50;100.00
36354;BME280;22383;51.114;13.666;2023-12-29T09:54:51;68132.53;;;8.58;100.00
36354;BME280;22383;51.114;13.666;2023-12-29T09:57:18;68169.72;;;8.89;100.00
36354;BME280;22383;51.114;13.666;2023-12-29T09:59:49;68200.28;;;9.17;100.00
36354;BME280;22383;51.114;13.666;2023-12-29T10:02:20;68190.84;;;9.03;100.00
36354;BME280;22383;51.114;13.666;2023-12-29T10:04:49;68182.34;;;8.96;100.00
36354;BME280;22383;51.114;13.666;2023-12-29T10:07:26;68152.72;;;8.74;100.00
36354;BME280;22383;51.114;13.666;2023-12-29T10:09:57;68145.19;;;8.72;100.00
36354;BME280;22383;51.114;13.666;2023-12-29T10:12:27;68140.47;;;8.65;100.00
36354;BME280;22383;51.114;13.666;2023-12-29T10:25:32;68143.66;;;8.65;100.00
36354;BME280;22383;51.114;13.666;2023-12-29T10:28:00;68153.09;;;8.72;100.00
36354;BME280;22383;51.114;13.666;2023-12-29T10:30:27;68152.16;;;8.73;100.00
36354;BME280;22383;51.114;13.666;2023-12-29T10:33:01;68163.47;;;8.83;100.00
36354;BME280;22383;51.114;13.666;2023-12-29T10:35:31;68183.88;;;9.02;100.00
36354;BME280;22383;51.114;13.666;2023-12-29T10:38:10;68217.09;;;9.30;100.00
36354;BME280;22383;51.114;13.666;2023-12-29T10:40:38;68228.59;;;9.35;100.00
36354;BME280;22383;51.114;13.666;2023-12-29T10:43:05;68229.91;;;9.39;100.00
36354;BME280;22383;51.114;13.666;2023-12-29T10:45:34;68237.09;;;9.50;100.00
36354;BME280;22383;51.114;13.666;2023-12-29T10:48:03;68245.03;;;9.57;100.00
36354;BME280;22383;51.114;13.666;2023-12-29T10:50:43;68249.56;;;9.61;100.00
36354;BME280;22383;51.114;13.666;2023-12-29T10:53:11;68257.88;;;9.67;100.00
36354;BME280;22383;51.114;13.666;2023-12-29T10:55:42;68265.25;;;9.73;100.00
36354;BME280;22383;51.114;13.666;2023-12-29T10:58:10;68276.56;;;9.83;100.00
36354;BME280;22383;51.114;13.666;2023-12-29T11:00:37;68278.25;;;9.85;100.00
36354;BME280;22383;51.114;13.666;2023-12-29T11:03:04;68239.38;;;9.52;100.00
36354;BME280;22383;51.114;13.666;2023-12-29T11:05:32;68240.50;;;9.53;100.00
36354;BME280;22383;51.114;13.666;2023-12-29T11:08:00;68258.81;;;9.65;100.00
36354;BME280;22383;51.114;13.666;2023-12-29T11:10:29;68249.94;;;9.59;100.00
36354;BME280;22383;51.114;13.666;2023-12-29T11:12:57;68249.56;;;9.61;100.00
36354;BME280;22383;51.114;13.666;2023-12-29T11:15:27;68255.03;;;9.64;100.00
36354;BME280;22383;51.114;13.666;2023-12-29T11:17:55;68246.53;;;9.63;100.00
36354;BME280;22383;51.114;13.666;2023-12-29T11:20:24;68247.84;;;9.60;100.00
36354;BME280;22383;51.114;13.666;2023-12-29T11:22:53;68249.34;;;9.59;100.00
36354;BME280;22383;51.114;13.666;2023-12-29T11:25:21;68261.63;;;9.68;100.00
36354;BME280;22383;51.114;13.666;2023-12-29T11:27:48;68233.13;;;9.46;100.00
36354;BME280;22383;51.114;13.666;2023-12-29T11:30:16;68232.75;;;9.49;100.00
36354;BME280;22383;51.114;13.666;2023-12-29T11:32:51;68241.06;;;9.54;100.00
36354;BME280;22383;51.114;13.666;2023-12-29T11:35:26;68239.94;;;9.53;100.00
36354;BME280;22383;51.114;13.666;2023-12-29T11:38:18;68251.06;;;9.60;100.00
36354;BME280;22383;51.114;13.666;2023-12-29T11:41:02;68274.28;;;9.81;100.00
36354;BME280;22383;51.114;13.666;2023-12-29T11:43:32;68263.72;;;9.74;100.00
36354;BME280;22383;51.114;13.666;2023-12-29T11:45:59;68274.66;;;9.87;100.00
36354;BME280;22383;51.114;13.666;2023-12-29T11:48:57;68272.22;;;9.82;100.00
36354;BME280;22383;51.114;13.666;2023-12-29T11:51:43;68271.09;;;9.81;100.00
36354;BME280;22383;51.114;13.666;2023-12-29T11:54:21;68261.47;;;9.72;100.00
36354;BME280;22383;51.114;13.666;2023-12-29T11:56:49;68271.66;;;9.81;100.00
36354;BME280;22383;51.114;13.666;2023-12-29T11:59:26;68275.22;;;9.80;100.00
36354;BME280;22383;51.114;13.666;2023-12-29T12:01:58;68271.66;;;9.81;100.00
36354;BME280;22383;51.114;13.666;2023-12-29T12:04:41;68275.63;;;9.85;100.00
36354;BME280;22383;51.114;13.666;2023-12-29T12:12:47;68257.69;;;9.71;100.00
36354;BME280;22383;51.114;13.666;2023-12-29T12:17:56;68226.91;;;9.41;100.00
36354;BME280;22383;51.114;13.666;2023-12-29T12:20:24;68226.34;;;9.33;100.00
36354;BME280;22383;51.114;13.666;2023-12-29T12:23:00;68217.47;;;9.27;100.00
36354;BME280;22383;51.114;13.666;2023-12-29T12:25:30;68208.22;;;9.24;100.00
36354;BME280;22383;51.114;13.666;2023-12-29T12:27:58;68220.66;;;9.35;100.00
36354;BME280;22383;51.114;13.666;2023-12-29T12:30:26;68225.19;;;9.39;100.00
36354;BME280;22383;51.114;13.666;2023-12-29T12:32:57;68231.81;;;9.43;100.00
36354;BME280;22383;51.114;13.666;2023-12-29T12:35:26;68237.84;;;9.46;100.00
36354;BME280;22383;51.114;13.666;2023-12-29T12:38:12;68230.88;;;9.44;100.00
36354;BME280;22383;51.114;13.666;2023-12-29T12:40:40;68226.50;;;9.36;100.00
36354;BME280;22383;51.114;13.666;2023-12-29T12:43:07;68229.91;;;9.39;100.00
36354;BME280;22383;51.114;13.666;2023-12-29T12:45:42;68219.72;;;9.30;100.00
36354;BME280;22383;51.114;13.666;2023-12-29T12:48:39;68224.25;;;9.34;100.00
36354;BME280;22383;51.114;13.666;2023-12-29T12:51:09;68219.16;;;9.29;100.00
36354;BME280;22383;51.114;13.666;2023-12-29T12:53:41;68225.19;;;9.39;100.00
36354;BME280;22383;51.114;13.666;2023-12-29T12:56:08;68236.91;;;9.48;100.00
36354;BME280;22383;51.114;13.666;2023-12-29T12:58:36;68246.53;;;9.56;100.00
36354;BME280;22383;51.114;13.666;2023-12-29T13:01:04;68255.59;;;9.64;100.00
36354;BME280;22383;51.114;13.666;2023-12-29T13:03:32;68246.72;;;9.59;100.00
36354;BME280;22383;51.114;13.666;2023-12-29T13:06:00;68253.91;;;9.63;100.00
36354;BME280;22383;51.114;13.666;2023-12-29T13:08:28;68254.66;;;9.66;100.00
36354;BME280;22383;51.114;13.666;2023-12-29T13:11:04;68258.44;;;9.67;100.00
36354;BME280;22383;51.114;13.666;2023-12-29T13:13:39;68259.75;;;9.71;100.00
36354;BME280;22383;51.114;13.666;2023-12-29T13:16:06;68255.22;;;9.67;100.00
36354;BME280;22383;51.114;13.666;2023-12-29T13:18:34;68238.78;;;9.52;100.00
36354;BME280;22383;51.114;13.666;2023-12-29T13:21:02;68249.34;;;9.59;100.00